sensor_id;sensor_type;location;lat;lon;timestamp;P1;durP1;ratioP1;P2;durP2;ratioP2
3280;SDS011;1652;51.318;6.202;2023-02-11T00:00:59;36.33;;;19.20;;
3280;SDS011;1652;51.318;6.202;2023-02-11T00:03:30;40.60;;;18.57;;
3280;SDS011;1652;51.318;6.202;2023-02-11T00:06:02;31.00;;;18.50;;
3280;SDS011;1652;51.318;6.202;2023-02-11T00:08:31;33.37;;;19.13;;
3280;SDS011;1652;51.318;6.202;2023-02-11T00:11:13;33.63;;;18.80;;
3280;SDS011;1652;51.318;6.202;2023-02-11T00:13:42;35.40;;;19.40;;
3280;SDS011;1652;51.318;6.202;2023-02-11T00:16:11;31.67;;;18.10;;
3280;SDS011;1652;51.318;6.202;2023-02-11T00:18:40;36.73;;;20.60;;
3280;SDS011;1652;51.318;6.202;2023-02-11T00:21:08;38.03;;;18.03;;
3280;SDS011;1652;51.318;6.202;2023-02-11T00:23:37;31.60;;;18.77;;
3280;SDS011;1652;51.318;6.202;2023-02-11T00:26:10;35.10;;;18.23;;
3280;SDS011;1652;51.318;6.202;2023-02-11T00:28:41;40.60;;;19.87;;
3280;SDS011;1652;51.318;6.202;2023-02-11T00:31:08;40.17;;;19.10;;
3280;SDS011;1652;51.318;6.202;2023-02-11T00:33:35;37.73;;;17.83;;
3280;SDS011;1652;51.318;6.202;2023-02-11T00:36:06;37.97;;;19.40;;
3280;SDS011;1652;51.318;6.202;2023-02-11T00:38:34;38.50;;;18.60;;
3280;SDS011;1652;51.318;6.202;2023-02-11T00:41:01;30.67;;;17.60;;
3280;SDS011;1652;51.318;6.202;2023-02-11T00:43:28;41.73;;;18.60;;
3280;SDS011;1652;51.318;6.202;2023-02-11T00:45:55;31.73;;;18.50;;
3280;SDS011;1652;51.318;6.202;2023-02-11T00:48:21;34.57;;;17.17;;
3280;SDS011;1652;51.318;6.202;2023-02-11T00:50:48;29.77;;;17.73;;
3280;SDS011;1652;51.318;6.202;2023-02-11T00:53:15;38.33;;;18.10;;
3280;SDS011;1652;51.318;6.202;2023-02-11T00:55:42;39.23;;;17.90;;
3280;SDS011;1652;51.318;6.202;2023-02-11T00:58:09;29.67;;;18.50;;
3280;SDS011;1652;51.318;6.202;2023-02-11T01:00:35;35.47;;;17.30;;
3280;SDS011;1652;51.318;6.202;2023-02-11T01:03:02;35.30;;;19.07;;
3280;SDS011;1652;51.318;6.202;2023-02-11T01:05:29;34.07;;;18.17;;
3280;SDS011;1652;51.318;6.202;2023-02-11T01:07:56;31.73;;;17.37;;
3280;SDS011;1652;51.318;6.202;2023-02-11T01:10:23;28.70;;;17.60;;
3280;SDS011;1652;51.318;6.202;2023-02-11T01:12:50;31.77;;;18.33;;
3280;SDS011;1652;51.318;6.202;2023-02-11T01:15:18;31.87;;;16.80;;
3280;SDS011;1652;51.318;6.202;2023-02-11T01:17:46;34.80;;;17.27;;
3280;SDS011;1652;51.318;6.202;2023-02-11T01:20:15;40.57;;;17.20;;
3280;SDS011;1652;51.318;6.202;2023-02-11T01:22:45;33.83;;;17.30;;
3280;SDS011;1652;51.318;6.202;2023-02-11T01:25:11;27.80;;;16.33;;
3280;SDS011;1652;51.318;6.202;2023-02-11T01:27:38;26.17;;;15.90;;
3280;SDS011;1652;51.318;6.202;2023-02-11T01:30:06;25.43;;;16.70;;
3280;SDS011;1652;51.318;6.202;2023-02-11T01:32:34;32.17;;;17.27;;
3280;SDS011;1652;51.318;6.202;2023-02-11T01:35:02;31.17;;;16.80;;
3280;SDS011;1652;51.318;6.202;2023-02-11T01:37:31;24.63;;;15.80;;
3280;SDS011;1652;51.318;6.202;2023-02-11T01:40:00;26.20;;;15.30;;
3280;SDS011;1652;51.318;6.202;2023-02-11T01:42:27;25.97;;;16.03;;
3280;SDS011;1652;51.318;6.202;2023-02-11T01:44:56;23.43;;;15.63;;
3280;SDS011;1652;51.318;6.202;2023-02-11T01:47:23;27.53;;;15.73;;
3280;SDS011;1652;51.318;6.202;2023-02-11T01:49:56;34.17;;;16.23;;
3280;SDS011;1652;51.318;6.202;2023-02-11T01:52:33;30.37;;;15.93;;
3280;SDS011;1652;51.318;6.202;2023-02-11T01:55:06;29.50;;;15.33;;
3280;SDS011;1652;51.318;6.202;2023-02-11T01:57:54;42.60;;;16.07;;
3280;SDS011;1652;51.318;6.202;2023-02-11T02:00:29;27.87;;;15.30;;
3280;SDS011;1652;51.318;6.202;2023-02-11T02:10:59;26.33;;;15.17;;
3280;SDS011;1652;51.318;6.202;2023-02-11T02:13:27;23.33;;;12.70;;
3280;SDS011;1652;51.318;6.202;2023-02-11T02:15:57;28.10;;;14.63;;
3280;SDS011;1652;51.318;6.202;2023-02-11T02:18:52;25.43;;;14.30;;
3280;SDS011;1652;51.318;6.202;2023-02-11T02:21:39;21.23;;;13.93;;
3280;SDS011;1652;51.318;6.202;2023-02-11T02:24:57;23.57;;;13.93;;
3280;SDS011;1652;51.318;6.202;2023-02-11T02:27:34;22.60;;;12.87;;
3280;SDS011;1652;51.318;6.202;2023-02-11T02:33:13;21.10;;;13.13;;
3280;SDS011;1652;51.318;6.202;2023-02-11T02:35:52;19.80;;;13.20;;
3280;SDS011;1652;51.318;6.202;2023-02-11T02:38:36;20.80;;;13.17;;
3280;SDS011;1652;51.318;6.202;2023-02-11T02:41:21;21.70;;;13.87;;
3280;SDS011;1652;51.318;6.202;2023-02-11T02:43:52;17.30;;;11.97;;
3280;SDS011;1652;51.318;6.202;2023-02-11T02:46:26;18.40;;;12.77;;
3280;SDS011;1652;51.318;6.202;2023-02-11T02:48:58;18.10;;;11.87;;
3280;SDS011;1652;51.318;6.202;2023-02-11T02:51:38;28.77;;;13.57;;
3280;SDS011;1652;51.318;6.202;2023-02-11T03:02:49;21.00;;;12.33;;
3280;SDS011;1652;51.318;6.202;2023-02-11T03:05:58;21.13;;;11.53;;
3280;SDS011;1652;51.318;6.202;2023-02-11T03:08:33;20.80;;;11.80;;
3280;SDS011;1652;51.318;6.202;2023-02-11T03:11:05;26.20;;;12.07;;
3280;SDS011;1652;51.318;6.202;2023-02-11T03:13:35;16.97;;;10.87;;
3280;SDS011;1652;51.318;6.202;2023-02-11T03:16:08;15.40;;;10.43;;
3280;SDS011;1652;51.318;6.202;2023-02-11T03:18:40;19.43;;;11.07;;
3280;SDS011;1652;51.318;6.202;2023-02-11T03:21:10;23.27;;;12.93;;
3280;SDS011;1652;51.318;6.202;2023-02-11T03:23:40;21.43;;;12.60;;
3280;SDS011;1652;51.318;6.202;2023-02-11T03:26:10;23.50;;;11.40;;
3280;SDS011;1652;51.318;6.202;2023-02-11T03:31:18;24.90;;;12.00;;
3280;SDS011;1652;51.318;6.202;2023-02-11T03:36:58;24.47;;;12.50;;
3280;SDS011;1652;51.318;6.202;2023-02-11T03:39:43;21.97;;;11.63;;
3280;SDS011;1652;51.318;6.202;2023-02-11T03:42:15;21.20;;;12.07;;
3280;SDS011;1652;51.318;6.202;2023-02-11T03:44:45;26.80;;;12.53;;
3280;SDS011;1652;51.318;6.202;2023-02-11T03:47:20;19.60;;;12.40;;
3280;SDS011;1652;51.318;6.202;2023-02-11T03:49:50;20.23;;;12.00;;
3280;SDS011;1652;51.318;6.202;2023-02-11T03:52:21;19.47;;;11.27;;
3280;SDS011;1652;51.318;6.202;2023-02-11T03:54:50;25.77;;;12.70;;
3280;SDS011;1652;51.318;6.202;2023-02-11T03:57:20;30.93;;;14.27;;
3280;SDS011;1652;51.318;6.202;2023-02-11T03:59:55;25.03;;;14.10;;
3280;SDS011;1652;51.318;6.202;2023-02-11T04:02:24;22.63;;;13.57;;
3280;SDS011;1652;51.318;6.202;2023-02-11T04:04:54;30.27;;;15.10;;
3280;SDS011;1652;51.318;6.202;2023-02-11T04:09:51;23.03;;;13.40;;
3280;SDS011;1652;51.318;6.202;2023-02-11T04:12:18;28.63;;;16.27;;
3280;SDS011;1652;51.318;6.202;2023-02-11T04:14:45;30.20;;;14.73;;
3280;SDS011;1652;51.318;6.202;2023-02-11T04:17:12;29.90;;;15.70;;
3280;SDS011;1652;51.318;6.202;2023-02-11T04:19:39;28.43;;;15.43;;
3280;SDS011;1652;51.318;6.202;2023-02-11T04:22:05;26.10;;;14.80;;
3280;SDS011;1652;51.318;6.202;2023-02-11T04:24:33;35.20;;;17.57;;
3280;SDS011;1652;51.318;6.202;2023-02-11T04:27:00;34.97;;;17.07;;
3280;SDS011;1652;51.318;6.202;2023-02-11T04:29:27;49.80;;;21.97;;
3280;SDS011;1652;51.318;6.202;2023-02-11T04:31:54;33.63;;;16.57;;
3280;SDS011;1652;51.318;6.202;2023-02-11T04:34:21;33.33;;;17.73;;
3280;SDS011;1652;51.318;6.202;2023-02-11T04:36:48;29.60;;;15.33;;
3280;SDS011;1652;51.318;6.202;2023-02-11T04:39:15;30.97;;;15.40;;
3280;SDS011;1652;51.318;6.202;2023-02-11T04:41:42;25.70;;;15.30;;
3280;SDS011;1652;51.318;6.202;2023-02-11T04:44:09;23.93;;;14.00;;
3280;SDS011;1652;51.318;6.202;2023-02-11T04:46:36;25.60;;;13.97;;
3280;SDS011;1652;51.318;6.202;2023-02-11T04:49:03;21.23;;;13.07;;
3280;SDS011;1652;51.318;6.202;2023-02-11T04:51:29;21.83;;;13.20;;
3280;SDS011;1652;51.318;6.202;2023-02-11T04:53:56;26.10;;;13.73;;
3280;SDS011;1652;51.318;6.202;2023-02-11T04:56:23;30.83;;;13.97;;
3280;SDS011;1652;51.318;6.202;2023-02-11T04:58:50;31.33;;;12.70;;
3280;SDS011;1652;51.318;6.202;2023-02-11T05:01:17;25.93;;;13.03;;
3280;SDS011;1652;51.318;6.202;2023-02-11T05:03:44;24.60;;;11.90;;
3280;SDS011;1652;51.318;6.202;2023-02-11T05:06:11;25.70;;;12.10;;
3280;SDS011;1652;51.318;6.202;2023-02-11T05:08:37;34.47;;;11.50;;
3280;SDS011;1652;51.318;6.202;2023-02-11T05:11:04;18.17;;;11.73;;
3280;SDS011;1652;51.318;6.202;2023-02-11T05:13:31;26.20;;;11.47;;
3280;SDS011;1652;51.318;6.202;2023-02-11T05:15:58;26.53;;;13.23;;
3280;SDS011;1652;51.318;6.202;2023-02-11T05:18:25;22.67;;;11.73;;
3280;SDS011;1652;51.318;6.202;2023-02-11T05:20:52;23.30;;;12.00;;
3280;SDS011;1652;51.318;6.202;2023-02-11T05:23:18;19.70;;;12.10;;
3280;SDS011;1652;51.318;6.202;2023-02-11T05:25:45;26.30;;;11.73;;
3280;SDS011;1652;51.318;6.202;2023-02-11T05:28:12;23.90;;;12.97;;
3280;SDS011;1652;51.318;6.202;2023-02-11T05:30:39;19.80;;;11.40;;
3280;SDS011;1652;51.318;6.202;2023-02-11T05:33:06;34.33;;;12.80;;
3280;SDS011;1652;51.318;6.202;2023-02-11T05:35:32;30.33;;;12.80;;
3280;SDS011;1652;51.318;6.202;2023-02-11T05:37:59;32.90;;;13.40;;
3280;SDS011;1652;51.318;6.202;2023-02-11T05:40:26;36.43;;;12.37;;
3280;SDS011;1652;51.318;6.202;2023-02-11T05:42:53;29.27;;;13.20;;
3280;SDS011;1652;51.318;6.202;2023-02-11T05:45:19;26.80;;;12.97;;
3280;SDS011;1652;51.318;6.202;2023-02-11T05:47:46;28.47;;;13.93;;
3280;SDS011;1652;51.318;6.202;2023-02-11T05:50:13;30.60;;;12.37;;
3280;SDS011;1652;51.318;6.202;2023-02-11T05:52:40;29.57;;;13.43;;
3280;SDS011;1652;51.318;6.202;2023-02-11T05:55:07;29.60;;;13.83;;
3280;SDS011;1652;51.318;6.202;2023-02-11T05:57:34;30.50;;;13.10;;
3280;SDS011;1652;51.318;6.202;2023-02-11T06:00:01;31.93;;;13.10;;
3280;SDS011;1652;51.318;6.202;2023-02-11T06:02:29;32.40;;;13.77;;
3280;SDS011;1652;51.318;6.202;2023-02-11T06:04:56;31.13;;;13.30;;
3280;SDS011;1652;51.318;6.202;2023-02-11T06:07:23;27.50;;;13.63;;
3280;SDS011;1652;51.318;6.202;2023-02-11T06:09:49;29.17;;;13.13;;
3280;SDS011;1652;51.318;6.202;2023-02-11T06:12:17;33.83;;;13.40;;
3280;SDS011;1652;51.318;6.202;2023-02-11T06:14:44;33.60;;;13.20;;
3280;SDS011;1652;51.318;6.202;2023-02-11T06:17:11;36.30;;;15.20;;
3280;SDS011;1652;51.318;6.202;2023-02-11T06:19:40;25.23;;;12.67;;
3280;SDS011;1652;51.318;6.202;2023-02-11T06:22:07;37.70;;;14.60;;
3280;SDS011;1652;51.318;6.202;2023-02-11T06:24:34;34.00;;;13.83;;
3280;SDS011;1652;51.318;6.202;2023-02-11T06:27:22;36.20;;;15.43;;
3280;SDS011;1652;51.318;6.202;2023-02-11T06:29:49;32.13;;;13.50;;
3280;SDS011;1652;51.318;6.202;2023-02-11T06:32:17;48.27;;;15.80;;
3280;SDS011;1652;51.318;6.202;2023-02-11T06:35:04;36.17;;;14.57;;
3280;SDS011;1652;51.318;6.202;2023-02-11T06:37:32;29.93;;;14.30;;
3280;SDS011;1652;51.318;6.202;2023-02-11T06:40:00;56.83;;;18.20;;
3280;SDS011;1652;51.318;6.202;2023-02-11T06:42:26;29.90;;;15.70;;
3280;SDS011;1652;51.318;6.202;2023-02-11T06:44:53;32.63;;;13.77;;
3280;SDS011;1652;51.318;6.202;2023-02-11T06:47:20;32.33;;;14.13;;
3280;SDS011;1652;51.318;6.202;2023-02-11T06:49:46;24.10;;;13.20;;
3280;SDS011;1652;51.318;6.202;2023-02-11T06:52:13;37.50;;;14.70;;
3280;SDS011;1652;51.318;6.202;2023-02-11T06:54:40;32.60;;;13.30;;
3280;SDS011;1652;51.318;6.202;2023-02-11T06:57:07;29.63;;;14.03;;
3280;SDS011;1652;51.318;6.202;2023-02-11T06:59:34;37.47;;;14.93;;
3280;SDS011;1652;51.318;6.202;2023-02-11T07:02:00;46.37;;;15.47;;
3280;SDS011;1652;51.318;6.202;2023-02-11T07:04:27;28.23;;;14.80;;
3280;SDS011;1652;51.318;6.202;2023-02-11T07:06:54;31.00;;;14.20;;
3280;SDS011;1652;51.318;6.202;2023-02-11T07:09:21;39.20;;;15.70;;
3280;SDS011;1652;51.318;6.202;2023-02-11T07:11:48;40.50;;;16.10;;
3280;SDS011;1652;51.318;6.202;2023-02-11T07:14:14;34.97;;;15.87;;
3280;SDS011;1652;51.318;6.202;2023-02-11T07:16:41;34.10;;;14.90;;
3280;SDS011;1652;51.318;6.202;2023-02-11T07:19:08;34.63;;;15.57;;
3280;SDS011;1652;51.318;6.202;2023-02-11T07:21:35;42.33;;;15.77;;
3280;SDS011;1652;51.318;6.202;2023-02-11T07:24:04;35.20;;;16.10;;
3280;SDS011;1652;51.318;6.202;2023-02-11T07:26:35;31.87;;;15.10;;
3280;SDS011;1652;51.318;6.202;2023-02-11T07:29:02;49.83;;;15.50;;
3280;SDS011;1652;51.318;6.202;2023-02-11T07:31:29;44.07;;;18.57;;
3280;SDS011;1652;51.318;6.202;2023-02-11T07:33:58;53.60;;;20.37;;
3280;SDS011;1652;51.318;6.202;2023-02-11T07:36:26;35.40;;;18.80;;
3280;SDS011;1652;51.318;6.202;2023-02-11T07:38:54;39.60;;;16.20;;
3280;SDS011;1652;51.318;6.202;2023-02-11T07:41:21;44.43;;;18.13;;
3280;SDS011;1652;51.318;6.202;2023-02-11T07:43:49;35.77;;;15.60;;
3280;SDS011;1652;51.318;6.202;2023-02-11T07:46:18;36.53;;;16.60;;
3280;SDS011;1652;51.318;6.202;2023-02-11T07:48:49;35.60;;;17.10;;
3280;SDS011;1652;51.318;6.202;2023-02-11T07:53:47;39.37;;;17.03;;
3280;SDS011;1652;51.318;6.202;2023-02-11T07:56:14;39.37;;;15.50;;
3280;SDS011;1652;51.318;6.202;2023-02-11T07:58:42;51.23;;;16.80;;
3280;SDS011;1652;51.318;6.202;2023-02-11T08:01:10;36.07;;;17.30;;
3280;SDS011;1652;51.318;6.202;2023-02-11T08:03:50;41.77;;;16.33;;
3280;SDS011;1652;51.318;6.202;2023-02-11T08:06:18;31.60;;;16.43;;
3280;SDS011;1652;51.318;6.202;2023-02-11T08:11:27;32.93;;;16.30;;
3280;SDS011;1652;51.318;6.202;2023-02-11T08:13:54;36.00;;;16.10;;
3280;SDS011;1652;51.318;6.202;2023-02-11T08:16:26;42.80;;;18.60;;
3280;SDS011;1652;51.318;6.202;2023-02-11T08:18:58;41.33;;;17.90;;
3280;SDS011;1652;51.318;6.202;2023-02-11T08:21:27;36.50;;;16.03;;
3280;SDS011;1652;51.318;6.202;2023-02-11T08:23:54;34.20;;;15.83;;
3280;SDS011;1652;51.318;6.202;2023-02-11T08:26:22;38.87;;;17.60;;
3280;SDS011;1652;51.318;6.202;2023-02-11T08:28:52;29.67;;;16.50;;
3280;SDS011;1652;51.318;6.202;2023-02-11T08:31:21;37.37;;;17.00;;
3280;SDS011;1652;51.318;6.202;2023-02-11T08:33:54;38.33;;;16.63;;
3280;SDS011;1652;51.318;6.202;2023-02-11T08:36:27;30.47;;;16.47;;
3280;SDS011;1652;51.318;6.202;2023-02-11T08:38:56;43.93;;;17.60;;
3280;SDS011;1652;51.318;6.202;2023-02-11T08:41:44;34.87;;;16.47;;
3280;SDS011;1652;51.318;6.202;2023-02-11T08:44:15;38.07;;;15.90;;
3280;SDS011;1652;51.318;6.202;2023-02-11T08:46:43;34.17;;;17.17;;
3280;SDS011;1652;51.318;6.202;2023-02-11T08:49:10;40.53;;;18.10;;
3280;SDS011;1652;51.318;6.202;2023-02-11T08:51:37;45.97;;;18.90;;
3280;SDS011;1652;51.318;6.202;2023-02-11T08:54:04;43.70;;;17.50;;
3280;SDS011;1652;51.318;6.202;2023-02-11T08:56:35;39.03;;;17.03;;
3280;SDS011;1652;51.318;6.202;2023-02-11T08:59:02;43.03;;;20.33;;
3280;SDS011;1652;51.318;6.202;2023-02-11T09:06:51;40.37;;;18.63;;
3280;SDS011;1652;51.318;6.202;2023-02-11T09:09:18;41.40;;;19.30;;
3280;SDS011;1652;51.318;6.202;2023-02-11T09:11:45;43.30;;;19.50;;
3280;SDS011;1652;51.318;6.202;2023-02-11T09:14:17;48.33;;;22.50;;
3280;SDS011;1652;51.318;6.202;2023-02-11T09:16:46;47.00;;;20.30;;
3280;SDS011;1652;51.318;6.202;2023-02-11T09:19:13;48.63;;;20.77;;
3280;SDS011;1652;51.318;6.202;2023-02-11T09:21:40;42.20;;;19.73;;
3280;SDS011;1652;51.318;6.202;2023-02-11T09:24:07;47.70;;;21.00;;
3280;SDS011;1652;51.318;6.202;2023-02-11T09:26:35;44.23;;;20.67;;
3280;SDS011;1652;51.318;6.202;2023-02-11T09:29:03;50.60;;;21.63;;
3280;SDS011;1652;51.318;6.202;2023-02-11T09:31:31;45.07;;;20.87;;
3280;SDS011;1652;51.318;6.202;2023-02-11T09:34:01;37.63;;;20.00;;
3280;SDS011;1652;51.318;6.202;2023-02-11T09:36:34;57.37;;;21.03;;
3280;SDS011;1652;51.318;6.202;2023-02-11T09:39:04;57.70;;;22.23;;
3280;SDS011;1652;51.318;6.202;2023-02-11T09:44:21;52.63;;;23.00;;
3280;SDS011;1652;51.318;6.202;2023-02-11T09:46:54;55.37;;;23.17;;
3280;SDS011;1652;51.318;6.202;2023-02-11T09:49:29;54.43;;;22.40;;
3280;SDS011;1652;51.318;6.202;2023-02-11T09:54:58;59.37;;;23.33;;
3280;SDS011;1652;51.318;6.202;2023-02-11T09:57:33;51.83;;;21.50;;
3280;SDS011;1652;51.318;6.202;2023-02-11T10:00:11;62.00;;;23.67;;
3280;SDS011;1652;51.318;6.202;2023-02-11T10:05:46;59.93;;;22.50;;
3280;SDS011;1652;51.318;6.202;2023-02-11T10:08:40;55.43;;;23.20;;
3280;SDS011;1652;51.318;6.202;2023-02-11T10:11:15;55.07;;;22.60;;
3280;SDS011;1652;51.318;6.202;2023-02-11T10:14:00;55.33;;;21.50;;
3280;SDS011;1652;51.318;6.202;2023-02-11T10:16:50;60.23;;;22.50;;
3280;SDS011;1652;51.318;6.202;2023-02-11T10:49:40;58.10;;;24.90;;
3280;SDS011;1652;51.318;6.202;2023-02-11T10:52:25;54.77;;;24.93;;
3280;SDS011;1652;51.318;6.202;2023-02-11T10:54:57;58.60;;;25.80;;
3280;SDS011;1652;51.318;6.202;2023-02-11T10:57:42;60.70;;;25.87;;
3280;SDS011;1652;51.318;6.202;2023-02-11T11:02:43;56.10;;;23.97;;
3280;SDS011;1652;51.318;6.202;2023-02-11T11:05:15;57.83;;;24.70;;
3280;SDS011;1652;51.318;6.202;2023-02-11T11:07:58;58.53;;;24.73;;
3280;SDS011;1652;51.318;6.202;2023-02-11T11:10:37;75.30;;;26.70;;
3280;SDS011;1652;51.318;6.202;2023-02-11T11:13:26;54.73;;;25.30;;
3280;SDS011;1652;51.318;6.202;2023-02-11T11:18:43;57.03;;;25.73;;
3280;SDS011;1652;51.318;6.202;2023-02-11T11:23:58;67.90;;;25.80;;
3280;SDS011;1652;51.318;6.202;2023-02-11T11:26:50;57.87;;;22.57;;
3280;SDS011;1652;51.318;6.202;2023-02-11T11:29:21;76.27;;;28.97;;
3280;SDS011;1652;51.318;6.202;2023-02-11T11:32:00;70.03;;;30.07;;
3280;SDS011;1652;51.318;6.202;2023-02-11T11:34:37;56.67;;;25.20;;
3280;SDS011;1652;51.318;6.202;2023-02-11T11:37:11;57.83;;;25.90;;
3280;SDS011;1652;51.318;6.202;2023-02-11T11:39:54;49.40;;;25.23;;
3280;SDS011;1652;51.318;6.202;2023-02-11T11:42:28;61.47;;;24.70;;
3280;SDS011;1652;51.318;6.202;2023-02-11T11:44:58;57.63;;;24.47;;
3280;SDS011;1652;51.318;6.202;2023-02-11T11:50:38;52.40;;;24.60;;
3280;SDS011;1652;51.318;6.202;2023-02-11T11:53:14;61.50;;;27.30;;
3280;SDS011;1652;51.318;6.202;2023-02-11T11:56:02;61.60;;;25.37;;
3280;SDS011;1652;51.318;6.202;2023-02-11T11:58:45;56.23;;;25.00;;
3280;SDS011;1652;51.318;6.202;2023-02-11T12:18:20;59.93;;;28.90;;
3280;SDS011;1652;51.318;6.202;2023-02-11T12:26:13;57.53;;;27.57;;
3280;SDS011;1652;51.318;6.202;2023-02-11T13:03:09;67.47;;;27.40;;
3280;SDS011;1652;51.318;6.202;2023-02-11T13:05:42;66.90;;;27.00;;
3280;SDS011;1652;51.318;6.202;2023-02-11T13:08:15;61.83;;;28.30;;
3280;SDS011;1652;51.318;6.202;2023-02-11T13:11:01;64.23;;;27.37;;
3280;SDS011;1652;51.318;6.202;2023-02-11T13:13:56;60.13;;;27.40;;
3280;SDS011;1652;51.318;6.202;2023-02-11T13:19:20;61.17;;;29.67;;
3280;SDS011;1652;51.318;6.202;2023-02-11T13:27:28;59.90;;;28.40;;
3280;SDS011;1652;51.318;6.202;2023-02-11T13:35:36;50.63;;;25.80;;
3280;SDS011;1652;51.318;6.202;2023-02-11T13:38:05;54.03;;;25.20;;
3280;SDS011;1652;51.318;6.202;2023-02-11T13:41:04;49.53;;;26.40;;
3280;SDS011;1652;51.318;6.202;2023-02-11T13:43:57;51.63;;;25.60;;
3280;SDS011;1652;51.318;6.202;2023-02-11T13:46:51;52.77;;;26.10;;
3280;SDS011;1652;51.318;6.202;2023-02-11T13:49:40;58.93;;;28.47;;
3280;SDS011;1652;51.318;6.202;2023-02-11T13:52:15;56.80;;;25.77;;
3280;SDS011;1652;51.318;6.202;2023-02-11T13:54:49;62.70;;;28.73;;
3280;SDS011;1652;51.318;6.202;2023-02-11T13:59:46;56.57;;;26.20;;
3280;SDS011;1652;51.318;6.202;2023-02-11T14:08:06;71.53;;;34.57;;
3280;SDS011;1652;51.318;6.202;2023-02-11T14:10:56;66.03;;;30.73;;
3280;SDS011;1652;51.318;6.202;2023-02-11T14:16:04;70.70;;;29.37;;
3280;SDS011;1652;51.318;6.202;2023-02-11T14:29:15;61.07;;;27.30;;
3280;SDS011;1652;51.318;6.202;2023-02-11T14:35:19;55.30;;;25.40;;
3280;SDS011;1652;51.318;6.202;2023-02-11T14:38:00;58.10;;;27.10;;
3280;SDS011;1652;51.318;6.202;2023-02-11T14:41:23;50.83;;;26.87;;
3280;SDS011;1652;51.318;6.202;2023-02-11T14:43:38;55.73;;;26.50;;
3280;SDS011;1652;51.318;6.202;2023-02-11T14:46:08;52.57;;;26.10;;
3280;SDS011;1652;51.318;6.202;2023-02-11T14:48:36;54.07;;;26.20;;
3280;SDS011;1652;51.318;6.202;2023-02-11T14:51:08;61.73;;;27.20;;
3280;SDS011;1652;51.318;6.202;2023-02-11T14:53:40;53.13;;;25.80;;
3280;SDS011;1652;51.318;6.202;2023-02-11T14:56:15;62.67;;;29.60;;
3280;SDS011;1652;51.318;6.202;2023-02-11T14:58:48;60.17;;;28.33;;
3280;SDS011;1652;51.318;6.202;2023-02-11T15:01:24;54.17;;;28.40;;
3280;SDS011;1652;51.318;6.202;2023-02-11T15:03:58;50.80;;;26.80;;
3280;SDS011;1652;51.318;6.202;2023-02-11T15:06:36;54.77;;;27.50;;
3280;SDS011;1652;51.318;6.202;2023-02-11T15:11:40;55.90;;;28.30;;
3280;SDS011;1652;51.318;6.202;2023-02-11T15:14:31;56.67;;;28.70;;
3280;SDS011;1652;51.318;6.202;2023-02-11T15:17:02;50.67;;;27.60;;
3280;SDS011;1652;51.318;6.202;2023-02-11T15:19:33;53.83;;;28.27;;
3280;SDS011;1652;51.318;6.202;2023-02-11T15:22:07;58.90;;;29.87;;
3280;SDS011;1652;51.318;6.202;2023-02-11T15:27:42;59.30;;;31.03;;
3280;SDS011;1652;51.318;6.202;2023-02-11T15:30:32;56.37;;;28.77;;
3280;SDS011;1652;51.318;6.202;2023-02-11T15:33:02;58.03;;;29.67;;
3280;SDS011;1652;51.318;6.202;2023-02-11T15:35:32;52.00;;;29.10;;
3280;SDS011;1652;51.318;6.202;2023-02-11T15:38:02;51.03;;;28.13;;
3280;SDS011;1652;51.318;6.202;2023-02-11T15:40:30;55.70;;;29.50;;
3280;SDS011;1652;51.318;6.202;2023-02-11T15:43:00;71.97;;;32.07;;
3280;SDS011;1652;51.318;6.202;2023-02-11T15:45:43;59.73;;;28.60;;
3280;SDS011;1652;51.318;6.202;2023-02-11T15:48:34;58.43;;;29.77;;
3280;SDS011;1652;51.318;6.202;2023-02-11T15:51:09;63.77;;;30.73;;
3280;SDS011;1652;51.318;6.202;2023-02-11T15:53:46;57.60;;;29.60;;
3280;SDS011;1652;51.318;6.202;2023-02-11T15:56:25;58.77;;;31.10;;
3280;SDS011;1652;51.318;6.202;2023-02-11T15:58:59;62.00;;;29.77;;
3280;SDS011;1652;51.318;6.202;2023-02-11T16:01:34;60.73;;;32.03;;
3280;SDS011;1652;51.318;6.202;2023-02-11T16:04:03;62.00;;;31.83;;
3280;SDS011;1652;51.318;6.202;2023-02-11T16:06:36;61.37;;;30.93;;
3280;SDS011;1652;51.318;6.202;2023-02-11T16:11:50;53.87;;;30.10;;
3280;SDS011;1652;51.318;6.202;2023-02-11T16:14:27;68.13;;;33.30;;
3280;SDS011;1652;51.318;6.202;2023-02-11T16:17:11;64.10;;;31.93;;
3280;SDS011;1652;51.318;6.202;2023-02-11T16:19:45;60.13;;;29.30;;
3280;SDS011;1652;51.318;6.202;2023-02-11T16:22:18;58.93;;;30.93;;
3280;SDS011;1652;51.318;6.202;2023-02-11T16:24:56;64.53;;;30.93;;
3280;SDS011;1652;51.318;6.202;2023-02-11T16:27:28;65.87;;;31.93;;
3280;SDS011;1652;51.318;6.202;2023-02-11T16:30:16;62.30;;;29.63;;
3280;SDS011;1652;51.318;6.202;2023-02-11T16:32:59;65.60;;;32.20;;
3280;SDS011;1652;51.318;6.202;2023-02-11T16:35:26;60.10;;;30.70;;
3280;SDS011;1652;51.318;6.202;2023-02-11T16:37:52;59.13;;;31.40;;
3280;SDS011;1652;51.318;6.202;2023-02-11T16:40:20;68.23;;;31.00;;
3280;SDS011;1652;51.318;6.202;2023-02-11T16:42:48;69.83;;;34.27;;
3280;SDS011;1652;51.318;6.202;2023-02-11T16:45:17;80.93;;;37.17;;
3280;SDS011;1652;51.318;6.202;2023-02-11T16:47:44;70.53;;;33.47;;
3280;SDS011;1652;51.318;6.202;2023-02-11T16:50:18;56.30;;;32.20;;
3280;SDS011;1652;51.318;6.202;2023-02-11T16:52:47;71.07;;;32.00;;
3280;SDS011;1652;51.318;6.202;2023-02-11T16:55:14;66.47;;;33.30;;
3280;SDS011;1652;51.318;6.202;2023-02-11T16:57:41;62.77;;;31.10;;
3280;SDS011;1652;51.318;6.202;2023-02-11T17:00:08;67.03;;;33.53;;
3280;SDS011;1652;51.318;6.202;2023-02-11T17:02:40;56.97;;;31.17;;
3280;SDS011;1652;51.318;6.202;2023-02-11T17:05:10;64.03;;;32.57;;
3280;SDS011;1652;51.318;6.202;2023-02-11T17:07:42;58.57;;;30.67;;
3280;SDS011;1652;51.318;6.202;2023-02-11T17:10:12;258.17;;;118.50;;
3280;SDS011;1652;51.318;6.202;2023-02-11T17:12:41;90.37;;;43.20;;
3280;SDS011;1652;51.318;6.202;2023-02-11T17:15:08;66.43;;;31.70;;
3280;SDS011;1652;51.318;6.202;2023-02-11T17:17:35;66.07;;;32.70;;
3280;SDS011;1652;51.318;6.202;2023-02-11T17:20:02;63.57;;;31.60;;
3280;SDS011;1652;51.318;6.202;2023-02-11T17:22:29;75.13;;;36.10;;
3280;SDS011;1652;51.318;6.202;2023-02-11T17:24:56;74.70;;;36.40;;
3280;SDS011;1652;51.318;6.202;2023-02-11T17:27:23;70.20;;;36.00;;
3280;SDS011;1652;51.318;6.202;2023-02-11T17:29:50;76.03;;;35.53;;
3280;SDS011;1652;51.318;6.202;2023-02-11T17:32:17;79.70;;;37.57;;
3280;SDS011;1652;51.318;6.202;2023-02-11T17:34:44;79.33;;;39.57;;
3280;SDS011;1652;51.318;6.202;2023-02-11T17:37:11;86.13;;;42.77;;
3280;SDS011;1652;51.318;6.202;2023-02-11T17:39:38;81.07;;;36.97;;
3280;SDS011;1652;51.318;6.202;2023-02-11T17:42:05;69.63;;;33.73;;
3280;SDS011;1652;51.318;6.202;2023-02-11T17:44:33;65.00;;;31.23;;
3280;SDS011;1652;51.318;6.202;2023-02-11T17:47:01;69.67;;;33.37;;
3280;SDS011;1652;51.318;6.202;2023-02-11T17:49:27;74.13;;;34.60;;
3280;SDS011;1652;51.318;6.202;2023-02-11T17:51:54;65.27;;;31.47;;
3280;SDS011;1652;51.318;6.202;2023-02-11T17:54:21;74.73;;;34.40;;
3280;SDS011;1652;51.318;6.202;2023-02-11T17:56:48;64.97;;;32.10;;
3280;SDS011;1652;51.318;6.202;2023-02-11T17:59:16;67.40;;;32.77;;
3280;SDS011;1652;51.318;6.202;2023-02-11T18:01:43;76.40;;;34.03;;
3280;SDS011;1652;51.318;6.202;2023-02-11T18:04:14;80.37;;;35.80;;
3280;SDS011;1652;51.318;6.202;2023-02-11T18:06:42;75.90;;;37.37;;
3280;SDS011;1652;51.318;6.202;2023-02-11T18:09:10;97.20;;;41.93;;
3280;SDS011;1652;51.318;6.202;2023-02-11T18:11:38;75.03;;;36.07;;
3280;SDS011;1652;51.318;6.202;2023-02-11T18:14:06;88.13;;;37.07;;
3280;SDS011;1652;51.318;6.202;2023-02-11T18:16:33;88.10;;;35.77;;
3280;SDS011;1652;51.318;6.202;2023-02-11T18:19:02;71.20;;;34.57;;
3280;SDS011;1652;51.318;6.202;2023-02-11T18:21:29;75.60;;;37.13;;
3280;SDS011;1652;51.318;6.202;2023-02-11T18:23:55;79.07;;;36.40;;
3280;SDS011;1652;51.318;6.202;2023-02-11T18:26:22;84.33;;;35.80;;